createdAt,value
2018-04-15T00:00:52.975Z,0.00
2018-04-15T00:01:52.963Z,0.00
2018-04-15T00:02:52.937Z,0.00
2018-04-15T00:03:52.928Z,0.00
2018-04-15T00:04:52.937Z,0.00
2018-04-15T00:05:52.899Z,0.00
2018-04-15T00:06:52.885Z,0.00
2018-04-15T00:07:52.873Z,0.00
2018-04-15T00:08:52.856Z,0.00
2018-04-15T00:09:52.839Z,0.00
2018-04-15T00:10:52.823Z,0.00
2018-04-15T00:11:52.806Z,0.00
2018-04-15T00:12:52.797Z,0.00
2018-04-15T00:13:52.775Z,0.00
2018-04-15T00:14:52.780Z,0.00
2018-04-15T00:15:52.754Z,0.00
2018-04-15T00:16:52.736Z,0.00
2018-04-15T00:17:52.726Z,0.00
2018-04-15T00:18:52.710Z,0.00
2018-04-15T00:19:52.681Z,0.00
2018-04-15T00:20:52.684Z,0.00
2018-04-15T00:21:52.655Z,0.00
2018-04-15T00:22:52.646Z,0.00
2018-04-15T00:23:52.632Z,0.00
2018-04-15T00:24:52.608Z,0.00
2018-04-15T00:25:52.624Z,0.00
2018-04-15T00:26:52.580Z,0.00
2018-04-15T00:27:52.574Z,0.00
2018-04-15T00:28:52.576Z,0.00
2018-04-15T00:29:52.534Z,0.00
2018-04-15T00:30:52.535Z,0.00
2018-04-15T00:31:52.509Z,0.00
2018-04-15T00:32:52.502Z,0.00
2018-04-15T00:33:52.477Z,0.00
2018-04-15T00:34:52.461Z,0.00
2018-04-15T00:35:52.442Z,0.00
2018-04-15T00:36:52.445Z,0.00
2018-04-15T00:37:52.423Z,0.00
2018-04-15T00:38:52.393Z,0.00
2018-04-15T00:39:52.384Z,0.00
2018-04-15T00:40:52.378Z,0.00
2018-04-15T00:41:52.364Z,0.00
2018-04-15T00:42:52.342Z,0.00
2018-04-15T00:43:52.339Z,0.00
2018-04-15T00:44:52.306Z,0.00
2018-04-15T00:45:52.322Z,0.00
2018-04-15T00:46:52.274Z,0.00
2018-04-15T00:47:52.274Z,0.00
2018-04-15T00:48:52.241Z,0.00
2018-04-15T00:49:52.232Z,0.00
2018-04-15T00:50:52.222Z,0.00
2018-04-15T00:51:52.200Z,0.00
2018-04-15T00:52:52.181Z,0.00
2018-04-15T00:53:52.167Z,0.00
2018-04-15T00:54:52.154Z,0.00
2018-04-15T00:55:52.139Z,0.00
2018-04-15T00:56:52.135Z,0.00
2018-04-15T00:57:52.107Z,0.00
2018-04-15T00:58:52.088Z,0.00
2018-04-15T00:59:52.085Z,0.00
2018-04-15T01:00:52.066Z,0.00
2018-04-15T01:01:52.046Z,0.00
2018-04-15T01:02:52.031Z,0.00
2018-04-15T01:03:52.019Z,0.00
2018-04-15T01:04:52.019Z,0.00
2018-04-15T01:05:52.025Z,0.00
2018-04-15T01:06:51.990Z,0.00
2018-04-15T01:07:51.956Z,0.00
2018-04-15T01:08:51.959Z,0.00
2018-04-15T01:09:51.925Z,0.00
2018-04-15T01:10:51.902Z,0.00
2018-04-15T01:11:51.899Z,0.00
2018-04-15T01:12:51.909Z,0.00
2018-04-15T01:13:51.870Z,0.00
2018-04-15T01:14:51.861Z,0.00
2018-04-15T01:15:51.841Z,0.00
2018-04-15T01:16:51.813Z,0.00
2018-04-15T01:17:51.799Z,0.00
2018-04-15T01:18:51.791Z,0.00
2018-04-15T01:19:51.818Z,0.00
2018-04-15T01:20:51.767Z,0.00
2018-04-15T01:21:51.750Z,0.00
2018-04-15T01:22:51.718Z,0.00
2018-04-15T01:23:51.711Z,0.00
2018-04-15T01:24:51.698Z,0.00
2018-04-15T01:25:51.685Z,0.00
2018-04-15T01:26:51.685Z,0.00
2018-04-15T01:27:51.646Z,0.00
2018-04-15T01:28:51.630Z,0.00
2018-04-15T01:29:51.633Z,0.00
2018-04-15T01:30:51.605Z,0.00
2018-04-15T01:31:51.616Z,0.00
2018-04-15T01:32:51.570Z,0.00
2018-04-15T01:33:51.558Z,0.00
2018-04-15T01:34:51.561Z,0.00
2018-04-15T01:35:51.525Z,0.00
2018-04-15T01:36:51.521Z,0.00
2018-04-15T01:37:51.506Z,0.00
2018-04-15T01:38:51.472Z,0.00
2018-04-15T01:39:51.468Z,0.00
2018-04-15T01:40:51.465Z,0.00
2018-04-15T01:41:51.436Z,0.00
2018-04-15T01:42:51.417Z,0.00
2018-04-15T01:43:51.430Z,0.00
2018-04-15T01:44:51.391Z,0.00
2018-04-15T01:45:51.363Z,0.00
2018-04-15T01:46:51.366Z,0.00
2018-04-15T01:47:51.362Z,0.00
2018-04-15T01:48:51.333Z,0.00
2018-04-15T01:49:51.311Z,0.00
2018-04-15T01:50:51.313Z,0.00
2018-04-15T01:51:51.276Z,0.00
2018-04-15T01:52:51.257Z,0.00
2018-04-15T01:53:51.276Z,0.00
2018-04-15T01:54:51.244Z,0.00
2018-04-15T01:55:51.240Z,0.00
2018-04-15T01:56:51.201Z,0.00
2018-04-15T01:57:51.195Z,0.00
2018-04-15T01:58:51.176Z,0.00
2018-04-15T01:59:51.148Z,0.00
2018-04-15T02:00:51.135Z,0.00
2018-04-15T02:01:51.128Z,0.00
2018-04-15T02:02:51.120Z,0.00
2018-04-15T02:03:51.101Z,0.00
2018-04-15T02:04:51.088Z,0.00
2018-04-15T02:05:51.065Z,0.00
2018-04-15T02:06:51.052Z,0.00
2018-04-15T02:07:51.042Z,0.00
2018-04-15T02:08:51.015Z,0.00
2018-04-15T02:09:51.022Z,0.00
2018-04-15T02:10:50.989Z,0.00
2018-04-15T02:11:50.993Z,0.00
2018-04-15T02:12:50.956Z,0.00
2018-04-15T02:13:50.949Z,0.00
2018-04-15T02:14:50.937Z,0.00
2018-04-15T02:15:50.924Z,0.00
2018-04-15T02:16:50.898Z,0.00
2018-04-15T02:17:50.883Z,0.00
2018-04-15T02:18:50.873Z,0.00
2018-04-15T02:19:50.844Z,0.00
2018-04-15T02:20:50.831Z,0.00
2018-04-15T02:21:50.819Z,0.00
2018-04-15T02:22:50.799Z,0.00
2018-04-15T02:23:50.781Z,0.00
2018-04-15T02:24:50.777Z,0.00
2018-04-15T02:25:50.773Z,0.00
2018-04-15T02:26:50.776Z,0.00
2018-04-15T02:27:50.734Z,0.00
2018-04-15T02:28:50.709Z,0.00
2018-04-15T02:29:50.706Z,0.00
2018-04-15T02:30:50.670Z,0.00
2018-04-15T02:31:50.660Z,0.00
2018-04-15T02:32:50.635Z,0.00
2018-04-15T02:33:50.649Z,0.00
2018-04-15T02:34:50.617Z,0.00
2018-04-15T02:35:50.600Z,0.00
2018-04-15T02:36:50.581Z,0.00
2018-04-15T02:37:50.573Z,0.00
2018-04-15T02:38:50.552Z,0.00
2018-04-15T02:39:50.540Z,0.00
2018-04-15T02:40:50.520Z,0.00
2018-04-15T02:41:50.505Z,0.00
2018-04-15T02:42:50.496Z,0.00
2018-04-15T02:43:50.473Z,0.00
2018-04-15T02:44:50.463Z,0.00
2018-04-15T02:45:50.450Z,0.00
2018-04-15T02:46:50.432Z,0.00
2018-04-15T02:47:50.429Z,0.00
2018-04-15T02:48:50.394Z,0.00
2018-04-15T02:49:50.384Z,0.00
2018-04-15T02:50:50.371Z,0.00
2018-04-15T02:51:50.350Z,0.00
2018-04-15T02:52:50.326Z,0.00
2018-04-15T02:53:50.317Z,0.00
2018-04-15T02:54:50.306Z,0.00
2018-04-15T02:55:50.297Z,0.00
2018-04-15T02:56:50.281Z,0.00
2018-04-15T02:57:50.258Z,0.00
2018-04-15T02:58:50.242Z,0.00
2018-04-15T02:59:50.226Z,0.00
2018-04-15T03:00:50.210Z,0.00
2018-04-15T03:01:50.223Z,0.00
2018-04-15T03:02:50.195Z,0.00
2018-04-15T03:03:50.208Z,0.00
2018-04-15T03:04:50.143Z,0.00
2018-04-15T03:05:50.137Z,0.00
2018-04-15T03:06:50.111Z,0.00
2018-04-15T03:07:50.095Z,0.00
2018-04-15T03:08:50.085Z,0.00
2018-04-15T03:09:50.072Z,0.00
2018-04-15T03:10:50.090Z,0.00
2018-04-15T03:11:50.037Z,0.00
2018-04-15T03:12:50.014Z,0.00
2018-04-15T03:13:49.998Z,0.00
2018-04-15T03:14:49.994Z,0.00
2018-04-15T03:15:49.979Z,0.00
2018-04-15T03:16:49.956Z,0.00
2018-04-15T03:17:49.941Z,0.00
2018-04-15T03:18:49.946Z,0.00
2018-04-15T03:19:49.909Z,0.00
2018-04-15T03:20:49.898Z,0.00
2018-04-15T03:21:49.876Z,0.00
2018-04-15T03:22:49.895Z,0.00
2018-04-15T03:23:49.853Z,0.00
2018-04-15T03:24:49.831Z,0.00
2018-04-15T03:25:49.809Z,0.00
2018-04-15T03:26:49.812Z,0.00
2018-04-15T03:27:49.786Z,0.00
2018-04-15T03:28:49.757Z,0.00
2018-04-15T03:29:49.781Z,0.00
2018-04-15T03:30:49.735Z,0.00
2018-04-15T03:31:49.719Z,0.00
2018-04-15T03:32:49.713Z,0.00
2018-04-15T03:33:49.716Z,0.00
2018-04-15T03:34:49.683Z,0.00
2018-04-15T03:35:49.659Z,0.00
2018-04-15T03:36:49.639Z,0.00
2018-04-15T03:37:49.626Z,0.00
2018-04-15T03:38:49.606Z,0.00
2018-04-15T03:39:49.591Z,0.00
2018-04-15T03:40:49.578Z,0.00
2018-04-15T03:41:49.567Z,0.00
2018-04-15T03:42:49.545Z,0.00
2018-04-15T03:43:49.610Z,0.00
2018-04-15T03:44:49.525Z,0.00
2018-04-15T03:45:49.497Z,0.00
2018-04-15T03:46:49.484Z,0.00
2018-04-15T03:47:49.471Z,0.00
2018-04-15T03:48:49.452Z,0.00
2018-04-15T03:49:49.435Z,0.00
2018-04-15T03:50:49.429Z,0.00
2018-04-15T03:51:49.404Z,0.00
2018-04-15T03:52:49.406Z,0.00
2018-04-15T03:53:49.388Z,0.00
2018-04-15T03:54:49.388Z,0.00
2018-04-15T03:55:49.363Z,0.00
2018-04-15T03:56:49.328Z,0.00
2018-04-15T03:57:49.312Z,0.00
2018-04-15T03:58:49.295Z,0.00
2018-04-15T03:59:49.281Z,0.00
2018-04-15T04:00:49.261Z,0.00
2018-04-15T04:01:49.251Z,0.00
2018-04-15T04:02:49.236Z,0.00
2018-04-15T04:03:49.216Z,0.00
2018-04-15T04:04:49.220Z,4.00
2018-04-15T04:05:49.191Z,4.00
2018-04-15T04:06:49.166Z,4.00
2018-04-15T04:07:49.156Z,4.00
2018-04-15T04:08:49.141Z,4.00
2018-04-15T04:09:49.123Z,4.00
2018-04-15T04:10:49.114Z,8.00
2018-04-15T04:11:49.089Z,8.00
2018-04-15T04:12:49.070Z,12.00
2018-04-15T04:13:49.070Z,12.00
2018-04-15T04:14:49.079Z,12.00
2018-04-15T04:15:49.034Z,16.00
2018-04-15T04:16:49.022Z,16.00
2018-04-15T04:17:49.024Z,24.00
2018-04-15T04:18:48.992Z,24.00
2018-04-15T04:19:48.964Z,28.00
2018-04-15T04:20:48.950Z,36.00
2018-04-15T04:21:48.948Z,40.00
2018-04-15T04:22:48.933Z,44.00
2018-04-15T04:23:48.929Z,48.00
2018-04-15T04:24:48.898Z,56.00
2018-04-15T04:25:48.875Z,60.00
2018-04-15T04:26:48.862Z,64.00
2018-04-15T04:27:48.840Z,76.00
2018-04-15T04:28:48.834Z,80.00
2018-04-15T04:29:48.817Z,92.00
2018-04-15T04:30:48.822Z,100.00
2018-04-15T04:31:48.795Z,112.00
2018-04-15T04:32:48.769Z,124.00
2018-04-15T04:33:48.760Z,136.00
2018-04-15T04:34:48.750Z,148.00
2018-04-15T04:35:48.711Z,164.00
2018-04-15T04:36:48.702Z,176.00
2018-04-15T04:37:48.712Z,192.00
2018-04-15T04:38:48.686Z,212.00
2018-04-15T04:39:48.673Z,228.00
2018-04-15T04:40:48.654Z,248.00
2018-04-15T04:41:48.640Z,276.00
2018-04-15T04:42:48.642Z,316.00
2018-04-15T04:43:48.601Z,364.00
2018-04-15T04:44:48.596Z,416.00
2018-04-15T04:45:48.572Z,472.00
2018-04-15T04:46:48.557Z,508.00
2018-04-15T04:47:48.530Z,552.00
2018-04-15T04:48:48.511Z,584.00
2018-04-15T04:49:48.502Z,604.00
2018-04-15T04:50:48.489Z,616.00
2018-04-15T04:51:48.495Z,632.00
2018-04-15T04:52:48.476Z,648.00
2018-04-15T04:53:48.431Z,672.00
2018-04-15T04:54:48.447Z,700.00
2018-04-15T04:55:48.412Z,724.00
2018-04-15T04:56:48.392Z,748.00
2018-04-15T04:57:48.381Z,768.00
2018-04-15T04:58:48.371Z,764.00
2018-04-15T04:59:48.346Z,724.00
2018-04-15T05:00:48.329Z,672.00
2018-04-15T05:01:48.317Z,636.00
2018-04-15T05:02:48.314Z,624.00
2018-04-15T05:03:48.286Z,640.00
2018-04-15T05:04:48.259Z,660.00
2018-04-15T05:05:48.249Z,684.00
2018-04-15T05:06:48.234Z,720.00
2018-04-15T05:07:48.230Z,744.00
2018-04-15T05:08:48.205Z,752.00
2018-04-15T05:09:48.195Z,752.00
2018-04-15T05:10:48.170Z,768.00
2018-04-15T05:11:48.189Z,800.00
2018-04-15T05:12:48.140Z,836.00
2018-04-15T05:13:48.120Z,860.00
2018-04-15T05:14:48.146Z,844.00
2018-04-15T05:15:48.101Z,804.00
2018-04-15T05:16:48.089Z,776.00
2018-04-15T05:17:48.076Z,772.00
2018-04-15T05:18:48.057Z,792.00
2018-04-15T05:19:48.041Z,832.00
2018-04-15T05:20:48.015Z,904.00
2018-04-15T05:21:48.002Z,948.00
2018-04-15T05:22:47.983Z,932.00
2018-04-15T05:23:47.968Z,888.00
2018-04-15T05:24:47.971Z,900.00
2018-04-15T05:25:47.946Z,948.00
2018-04-15T05:26:47.926Z,1028.00
2018-04-15T05:27:47.926Z,1128.00
2018-04-15T05:28:47.895Z,1204.00
2018-04-15T05:29:47.881Z,1240.00
2018-04-15T05:30:47.866Z,1224.00
2018-04-15T05:31:47.853Z,1260.00
2018-04-15T05:32:47.843Z,1352.00
2018-04-15T05:33:47.820Z,1412.00
2018-04-15T05:34:47.831Z,1436.00
2018-04-15T05:35:47.805Z,1452.00
2018-04-15T05:36:47.776Z,1492.00
2018-04-15T05:37:47.769Z,1572.00
2018-04-15T05:38:47.756Z,1648.00
2018-04-15T05:39:47.724Z,1684.00
2018-04-15T05:40:47.722Z,1724.00
2018-04-15T05:41:47.705Z,1800.00
2018-04-15T05:42:47.682Z,1872.00
2018-04-15T05:43:47.670Z,1916.00
2018-04-15T05:44:47.650Z,2004.00
2018-04-15T05:45:47.631Z,2148.00
2018-04-15T05:46:47.622Z,2284.00
2018-04-15T05:47:47.618Z,2376.00
2018-04-15T05:48:47.596Z,2428.00
2018-04-15T05:49:47.577Z,2404.00
2018-04-15T05:50:47.577Z,2392.00
2018-04-15T05:51:47.551Z,2468.00
2018-04-15T05:52:47.541Z,2640.00
2018-04-15T05:53:47.528Z,2848.00
2018-04-15T05:54:47.502Z,3060.00
2018-04-15T05:55:47.495Z,3268.00
2018-04-15T05:56:47.463Z,3520.00
2018-04-15T05:57:47.454Z,3748.00
2018-04-15T05:58:47.457Z,3912.00
2018-04-15T05:59:47.438Z,4096.00
2018-04-15T06:00:47.409Z,4268.00
2018-04-15T06:01:47.425Z,4344.00
2018-04-15T06:02:47.377Z,4360.00
2018-04-15T06:03:47.370Z,4396.00
2018-04-15T06:04:47.396Z,4368.00
2018-04-15T06:05:47.335Z,4256.00
2018-04-15T06:06:47.323Z,4096.00
2018-04-15T06:07:47.323Z,3828.00
2018-04-15T06:08:47.297Z,3580.00
2018-04-15T06:09:47.274Z,3428.00
2018-04-15T06:10:47.266Z,3236.00
2018-04-15T06:11:47.250Z,2964.00
2018-04-15T06:12:47.237Z,2764.00
2018-04-15T06:13:47.221Z,2716.00
2018-04-15T06:14:47.224Z,2772.00
2018-04-15T06:15:47.192Z,2812.00
2018-04-15T06:16:47.173Z,2868.00
2018-04-15T06:17:47.174Z,2936.00
2018-04-15T06:18:47.147Z,3000.00
2018-04-15T06:19:47.142Z,3000.00
2018-04-15T06:20:47.124Z,2936.00
2018-04-15T06:21:47.101Z,2876.00
2018-04-15T06:22:47.105Z,2884.00
2018-04-15T06:23:47.080Z,2888.00
2018-04-15T06:24:47.057Z,2900.00
2018-04-15T06:25:47.048Z,2924.00
2018-04-15T06:26:47.038Z,2892.00
2018-04-15T06:27:47.030Z,2800.00
2018-04-15T06:28:47.006Z,2716.00
2018-04-15T06:29:46.987Z,2728.00
2018-04-15T06:30:46.980Z,2852.00
2018-04-15T06:31:46.960Z,2992.00
2018-04-15T06:32:46.961Z,3056.00
2018-04-15T06:33:46.940Z,3044.00
2018-04-15T06:34:46.928Z,3040.00
2018-04-15T06:35:46.909Z,3092.00
2018-04-15T06:36:46.981Z,3188.00
2018-04-15T06:37:46.870Z,3300.00
2018-04-15T06:38:46.861Z,3340.00
2018-04-15T06:39:46.848Z,3248.00
2018-04-15T06:40:46.831Z,3216.00
2018-04-15T06:41:46.823Z,3356.00
2018-04-15T06:42:46.800Z,3632.00
2018-04-15T06:43:46.790Z,3972.00
2018-04-15T06:44:46.781Z,4284.00
2018-04-15T06:45:46.777Z,4472.00
2018-04-15T06:46:46.759Z,4556.00
2018-04-15T06:47:46.734Z,4576.00
2018-04-15T06:48:46.718Z,4652.00
2018-04-15T06:49:46.707Z,4820.00
2018-04-15T06:50:46.696Z,4988.00
2018-04-15T06:51:46.681Z,5176.00
2018-04-15T06:52:46.667Z,5388.00
2018-04-15T06:53:46.660Z,5384.00
2018-04-15T06:54:46.663Z,5084.00
2018-04-15T06:55:46.660Z,4868.00
2018-04-15T06:56:46.622Z,4984.00
2018-04-15T06:57:46.596Z,5248.00
2018-04-15T06:58:46.590Z,5420.00
2018-04-15T06:59:46.589Z,5664.00
2018-04-15T07:00:46.558Z,6208.00
2018-04-15T07:01:46.556Z,6888.00
2018-04-15T07:02:46.526Z,7412.00
2018-04-15T07:03:46.532Z,7580.00
2018-04-15T07:04:46.520Z,7568.00
2018-04-15T07:05:46.481Z,7724.00
2018-04-15T07:06:46.475Z,7840.00
2018-04-15T07:07:46.459Z,7568.00
2018-04-15T07:08:46.442Z,7136.00
2018-04-15T07:09:46.427Z,7112.00
2018-04-15T07:10:46.433Z,7568.00
2018-04-15T07:11:46.414Z,8088.00
2018-04-15T07:12:46.391Z,8376.00
2018-04-15T07:13:46.379Z,8584.00
2018-04-15T07:14:46.376Z,8836.00
2018-04-15T07:15:46.373Z,8984.00
2018-04-15T07:16:46.344Z,8988.00
2018-04-15T07:17:46.328Z,8784.00
2018-04-15T07:18:46.354Z,8488.00
2018-04-15T07:19:46.300Z,8364.00
2018-04-15T07:20:46.293Z,8388.00
2018-04-15T07:21:46.299Z,8652.00
2018-04-15T07:22:46.264Z,9036.00
2018-04-15T07:23:46.246Z,9284.00
2018-04-15T07:24:46.239Z,9448.00
2018-04-15T07:25:46.220Z,9540.00
2018-04-15T07:26:46.213Z,9656.00
2018-04-15T07:27:46.197Z,9800.00
2018-04-15T07:28:46.175Z,9640.00
2018-04-15T07:29:46.191Z,9280.00
2018-04-15T07:30:46.167Z,8680.00
2018-04-15T07:31:46.141Z,8160.00
2018-04-15T07:32:46.134Z,8096.00
2018-04-15T07:33:46.181Z,8540.00
2018-04-15T07:34:46.115Z,9200.00
2018-04-15T07:35:46.099Z,9908.00
2018-04-15T07:36:46.083Z,10680.00
2018-04-15T07:37:46.082Z,11392.00
2018-04-15T07:38:46.051Z,11988.00
2018-04-15T07:39:46.040Z,12372.00
2018-04-15T07:40:46.026Z,12148.00
2018-04-15T07:41:46.009Z,11912.00
2018-04-15T07:42:46.013Z,12108.00
2018-04-15T07:43:45.996Z,12524.00
2018-04-15T07:44:45.977Z,13168.00
2018-04-15T07:45:45.969Z,13672.00
2018-04-15T07:46:45.952Z,13068.00
2018-04-15T07:47:45.958Z,13028.00
2018-04-15T07:48:45.930Z,13492.00
2018-04-15T07:49:45.917Z,13696.00
2018-04-15T07:50:45.901Z,13360.00
2018-04-15T07:51:45.886Z,12192.00
2018-04-15T07:52:45.875Z,11476.00
2018-04-15T07:53:45.886Z,11504.00
2018-04-15T07:54:45.854Z,12232.00
2018-04-15T07:55:45.847Z,13308.00
2018-04-15T07:56:45.841Z,14472.00
2018-04-15T07:57:45.818Z,14604.00
2018-04-15T07:58:45.815Z,14252.00
2018-04-15T07:59:45.799Z,14312.00
2018-04-15T08:00:45.780Z,15472.00
2018-04-15T08:01:45.768Z,15208.00
2018-04-15T08:02:45.757Z,14140.00
2018-04-15T08:03:45.759Z,13488.00
2018-04-15T08:04:45.741Z,11640.00
2018-04-15T08:05:45.728Z,11036.00
2018-04-15T08:06:45.715Z,10808.00
2018-04-15T08:07:45.772Z,11020.00
2018-04-15T08:08:45.689Z,11032.00
2018-04-15T08:09:45.692Z,11260.00
2018-04-15T08:10:45.667Z,11568.00
2018-04-15T08:11:45.670Z,11608.00
2018-04-15T08:12:45.676Z,11776.00
2018-04-15T08:13:45.632Z,11620.00
2018-04-15T08:14:45.610Z,11952.00
2018-04-15T08:15:45.597Z,12028.00
2018-04-15T08:16:45.597Z,12384.00
2018-04-15T08:17:45.574Z,12640.00
2018-04-15T08:18:45.566Z,11564.00
2018-04-15T08:19:45.552Z,11412.00
2018-04-15T08:20:45.543Z,11928.00
2018-04-15T08:21:45.562Z,12416.00
2018-04-15T08:22:45.521Z,12556.00
2018-04-15T08:23:45.511Z,12772.00
2018-04-15T08:24:45.495Z,13628.00
2018-04-15T08:25:45.488Z,14164.00
2018-04-15T08:26:45.469Z,14796.00
2018-04-15T08:27:45.460Z,15424.00
2018-04-15T08:28:45.447Z,16236.00
2018-04-15T08:29:45.424Z,16820.00
2018-04-15T08:30:45.418Z,17060.00
2018-04-15T08:31:45.408Z,17376.00
2018-04-15T08:32:45.421Z,17760.00
2018-04-15T08:33:45.392Z,18592.00
2018-04-15T08:34:45.393Z,19456.00
2018-04-15T08:35:45.412Z,19872.00
2018-04-15T08:36:45.353Z,21216.00
2018-04-15T08:37:45.366Z,24384.00
2018-04-15T08:38:45.331Z,29984.00
2018-04-15T08:39:45.331Z,36416.00
2018-04-15T08:40:45.315Z,36544.00
2018-04-15T08:41:45.319Z,34784.00
2018-04-15T08:42:45.296Z,49344.00
2018-04-15T08:43:45.273Z,54880.00
2018-04-15T08:44:45.267Z,55392.00
2018-04-15T08:45:45.254Z,55392.00
2018-04-15T08:46:45.277Z,60192.00
2018-04-15T08:47:45.252Z,41536.00
2018-04-15T08:48:45.242Z,52224.00
2018-04-15T08:49:45.219Z,49440.00
2018-04-15T08:50:45.213Z,57184.00
2018-04-15T08:51:45.197Z,64064.00
2018-04-15T08:52:45.197Z,60000.00
2018-04-15T08:53:45.196Z,56640.00
2018-04-15T08:54:45.193Z,63616.00
2018-04-15T08:55:45.163Z,69664.00
2018-04-15T08:56:45.177Z,64832.00
2018-04-15T08:57:45.154Z,67712.00
2018-04-15T08:58:45.144Z,63808.00
2018-04-15T08:59:45.144Z,58432.00
2018-04-15T09:00:45.141Z,58784.00
2018-04-15T09:01:45.125Z,65728.00
2018-04-15T09:02:45.147Z,47744.00
2018-04-15T09:03:45.115Z,56864.00
2018-04-15T09:04:45.125Z,46272.00
2018-04-15T09:05:45.103Z,37760.00
2018-04-15T09:06:45.099Z,37472.00
2018-04-15T09:07:45.106Z,36448.00
2018-04-15T09:08:45.096Z,51840.00
2018-04-15T09:09:45.119Z,56608.00
2018-04-15T09:10:45.087Z,74880.00
2018-04-15T09:11:45.074Z,44256.00
2018-04-15T09:12:45.064Z,80320.00
2018-04-15T09:13:45.070Z,72160.00
2018-04-15T09:14:45.063Z,56160.00
2018-04-15T09:15:45.059Z,66656.00
2018-04-15T09:16:45.045Z,78304.00
2018-04-15T09:17:45.048Z,71136.00
2018-04-15T09:18:45.056Z,64000.00
2018-04-15T09:19:45.048Z,51136.00
2018-04-15T09:20:45.054Z,52576.00
2018-04-15T09:21:45.035Z,63680.00
2018-04-15T09:22:45.035Z,57728.00
2018-04-15T09:23:45.027Z,61056.00
2018-04-15T09:24:45.024Z,50496.00
2018-04-15T09:25:45.031Z,66624.00
2018-04-15T09:26:45.029Z,59264.00
2018-04-15T09:27:45.016Z,71232.00
2018-04-15T09:28:45.035Z,65792.00
2018-04-15T09:29:45.010Z,63200.00
2018-04-15T09:30:45.019Z,60032.00
2018-04-15T09:31:45.002Z,66976.00
2018-04-15T09:32:45.009Z,40800.00
2018-04-15T09:33:44.996Z,45728.00
2018-04-15T09:34:45.003Z,41792.00
2018-04-15T09:35:44.993Z,41248.00
2018-04-15T09:36:44.986Z,42112.00
2018-04-15T09:37:44.993Z,44960.00
2018-04-15T09:38:44.983Z,68512.00
2018-04-15T09:39:44.980Z,52608.00
2018-04-15T09:40:44.977Z,63840.00
2018-04-15T09:41:44.976Z,44992.00
2018-04-15T09:42:44.967Z,42720.00
2018-04-15T09:43:44.977Z,44064.00
2018-04-15T09:44:44.970Z,39680.00
2018-04-15T09:45:44.960Z,43488.00
2018-04-15T09:46:44.960Z,42688.00
2018-04-15T09:47:44.953Z,50848.00
2018-04-15T09:48:44.957Z,64672.00
2018-04-15T09:49:44.963Z,52672.00
2018-04-15T09:50:44.967Z,48928.00
2018-04-15T09:51:44.944Z,43872.00
2018-04-15T09:52:44.957Z,54336.00
2018-04-15T09:53:44.948Z,45184.00
2018-04-15T09:54:44.944Z,50816.00
2018-04-15T09:55:44.934Z,38528.00
2018-04-15T09:56:44.932Z,39488.00
2018-04-15T09:57:44.941Z,38016.00
2018-04-15T09:58:44.925Z,43712.00
2018-04-15T09:59:44.935Z,43072.00
2018-04-15T10:00:44.927Z,46752.00
2018-04-15T10:01:44.918Z,53184.00
2018-04-15T10:02:44.911Z,63008.00
2018-04-15T10:03:44.924Z,52256.00
2018-04-15T10:04:44.925Z,61760.00
2018-04-15T10:05:44.917Z,56672.00
2018-04-15T10:06:44.904Z,33856.00
2018-04-15T10:07:44.901Z,44768.00
2018-04-15T10:08:44.904Z,42112.00
2018-04-15T10:09:44.897Z,42560.00
2018-04-15T10:10:44.915Z,58496.00
2018-04-15T10:11:44.895Z,57120.00
2018-04-15T10:12:44.885Z,49568.00
2018-04-15T10:13:44.889Z,47136.00
2018-04-15T10:14:44.892Z,50176.00
2018-04-15T10:15:44.873Z,50592.00
2018-04-15T10:16:44.898Z,52544.00
2018-04-15T10:17:44.876Z,48064.00
2018-04-15T10:18:44.877Z,56128.00
2018-04-15T10:19:44.870Z,63648.00
2018-04-15T10:20:44.890Z,62944.00
2018-04-15T10:21:44.866Z,75456.00
2018-04-15T10:22:44.864Z,79008.00
2018-04-15T10:23:44.870Z,69024.00
2018-04-15T10:24:44.861Z,66176.00
2018-04-15T10:25:44.865Z,73280.00
2018-04-15T10:26:44.857Z,79776.00
2018-04-15T10:27:44.851Z,71200.00
2018-04-15T10:28:44.864Z,67840.00
2018-04-15T10:29:44.849Z,73440.00
2018-04-15T10:30:44.845Z,70272.00
2018-04-15T10:31:44.858Z,72480.00
2018-04-15T10:32:44.850Z,70368.00
2018-04-15T10:33:44.844Z,61376.00
2018-04-15T10:34:44.851Z,67200.00
2018-04-15T10:35:44.852Z,83072.00
2018-04-15T10:36:44.839Z,75008.00
2018-04-15T10:37:44.845Z,85504.00
2018-04-15T10:38:44.908Z,82752.00
2018-04-15T10:39:44.852Z,83968.00
2018-04-15T10:40:44.846Z,63968.00
2018-04-15T10:41:44.847Z,53856.00
2018-04-15T10:42:44.854Z,48224.00
2018-04-15T10:43:44.878Z,55264.00
2018-04-15T10:44:44.852Z,54272.00
2018-04-15T10:45:44.844Z,59456.00
2018-04-15T10:46:44.846Z,60192.00
2018-04-15T10:47:44.866Z,60064.00
2018-04-15T10:48:44.843Z,75520.00
2018-04-15T10:49:44.847Z,83328.00
2018-04-15T10:50:44.851Z,89056.00
2018-04-15T10:51:44.853Z,89376.00
2018-04-15T10:52:44.850Z,72832.00
2018-04-15T10:53:44.854Z,89792.00
2018-04-15T10:54:44.908Z,86656.00
2018-04-15T10:55:44.840Z,93504.00
2018-04-15T10:56:44.853Z,90112.00
2018-04-15T10:57:44.848Z,90816.00
2018-04-15T10:58:44.860Z,87776.00
2018-04-15T10:59:44.853Z,86176.00
2018-04-15T11:00:44.852Z,65408.00
2018-04-15T11:01:44.850Z,60224.00
2018-04-15T11:02:44.872Z,86368.00
2018-04-15T11:03:44.869Z,69408.00
2018-04-15T11:04:44.859Z,66560.00
2018-04-15T11:05:44.863Z,97408.00
2018-04-15T11:06:44.861Z,97568.00
2018-04-15T11:07:44.876Z,88928.00
2018-04-15T11:08:44.901Z,92832.00
2018-04-15T11:09:44.869Z,81696.00
2018-04-15T11:10:44.885Z,65408.00
2018-04-15T11:11:44.879Z,85248.00
2018-04-15T11:12:44.880Z,73920.00
2018-04-15T11:13:44.901Z,62112.00
2018-04-15T11:14:44.899Z,77632.00
2018-04-15T11:15:44.886Z,86368.00
2018-04-15T11:16:44.911Z,93664.00
2018-04-15T11:17:44.889Z,78624.00
2018-04-15T11:18:44.897Z,74688.00
2018-04-15T11:19:44.891Z,87296.00
2018-04-15T11:20:44.908Z,76928.00
2018-04-15T11:21:44.908Z,86112.00
2018-04-15T11:22:44.909Z,77120.00
2018-04-15T11:23:44.920Z,62560.00
2018-04-15T11:24:44.930Z,76544.00
2018-04-15T11:25:44.927Z,69312.00
2018-04-15T11:26:44.922Z,72896.00
2018-04-15T11:27:44.917Z,75456.00
2018-04-15T11:28:44.953Z,83136.00
2018-04-15T11:29:44.923Z,85280.00
2018-04-15T11:30:44.925Z,85088.00
2018-04-15T11:31:44.933Z,80736.00
2018-04-15T11:32:44.946Z,71968.00
2018-04-15T11:33:44.950Z,73376.00
2018-04-15T11:34:44.953Z,70592.00
2018-04-15T11:35:44.968Z,82496.00
2018-04-15T11:36:44.995Z,68928.00
2018-04-15T11:37:44.985Z,74816.00
2018-04-15T11:38:44.950Z,73856.00
2018-04-15T11:39:44.963Z,63872.00
2018-04-15T11:40:44.953Z,60672.00
2018-04-15T11:41:44.978Z,68992.00
2018-04-15T11:42:44.959Z,83648.00
2018-04-15T11:43:44.964Z,80512.00
2018-04-15T11:44:44.969Z,66720.00
2018-04-15T11:45:44.969Z,80256.00
2018-04-15T11:46:44.971Z,67008.00
2018-04-15T11:47:44.990Z,69056.00
2018-04-15T11:48:45.005Z,63680.00
2018-04-15T11:49:45.001Z,45472.00
2018-04-15T11:50:44.994Z,58528.00
2018-04-15T11:51:45.058Z,62624.00
2018-04-15T11:52:44.987Z,63392.00
2018-04-15T11:53:44.991Z,66112.00
2018-04-15T11:54:44.994Z,59168.00
2018-04-15T11:55:45.007Z,62464.00
2018-04-15T11:56:44.991Z,56992.00
2018-04-15T11:57:45.004Z,51968.00
2018-04-15T11:58:45.003Z,56160.00
2018-04-15T11:59:45.007Z,58080.00
2018-04-15T12:00:45.039Z,65600.00
2018-04-15T12:01:45.010Z,57952.00
2018-04-15T12:02:45.026Z,63168.00
2018-04-15T12:03:45.010Z,64480.00
2018-04-15T12:04:45.019Z,52352.00
2018-04-15T12:05:45.017Z,45984.00
2018-04-15T12:06:45.042Z,59904.00
2018-04-15T12:07:45.020Z,64128.00
2018-04-15T12:08:45.024Z,83584.00
2018-04-15T12:09:45.016Z,78944.00
2018-04-15T12:10:45.026Z,66944.00
2018-04-15T12:11:45.041Z,38112.00
2018-04-15T12:12:45.032Z,34336.00
2018-04-15T12:13:45.033Z,33088.00
2018-04-15T12:14:45.029Z,31936.00
2018-04-15T12:15:45.030Z,31776.00
2018-04-15T12:16:45.096Z,34816.00
2018-04-15T12:17:45.029Z,32480.00
2018-04-15T12:18:45.030Z,28896.00
2018-04-15T12:19:45.043Z,32832.00
2018-04-15T12:20:45.054Z,29024.00
2018-04-15T12:21:45.049Z,32768.00
2018-04-15T12:22:45.049Z,31392.00